createdAt,value
2019-05-03T00:01:02.266Z,76.89
2019-05-03T00:03:28.974Z,75.74
2019-05-03T00:05:58.891Z,75.58
2019-05-03T00:08:25.659Z,76.10
2019-05-03T00:10:52.385Z,76.32
2019-05-03T00:13:19.166Z,76.10
2019-05-03T00:16:05.544Z,76.21
2019-05-03T00:18:32.742Z,76.17
2019-05-03T00:21:02.164Z,77.11
2019-05-03T00:23:29.852Z,77.67
2019-05-03T00:25:56.582Z,79.29
2019-05-03T00:28:23.362Z,79.95
2019-05-03T00:30:51.852Z,79.74
2019-05-03T00:33:19.497Z,80.25
2019-05-03T00:36:06.095Z,80.21
2019-05-03T00:38:33.080Z,80.54
2019-05-03T00:41:01.746Z,81.23
2019-05-03T00:43:28.615Z,81.88
2019-05-03T00:45:55.342Z,81.76
2019-05-03T00:48:22.101Z,79.19
2019-05-03T00:51:08.443Z,79.03
2019-05-03T00:53:35.204Z,77.32
2019-05-03T00:56:01.942Z,76.65
2019-05-03T00:58:28.805Z,77.14
2019-05-03T01:00:55.684Z,75.39
2019-05-03T01:03:22.546Z,74.22
2019-05-03T01:05:49.676Z,74.89
2019-05-03T01:08:16.758Z,74.42
2019-05-03T01:10:43.498Z,75.67
2019-05-03T01:13:12.233Z,77.60
2019-05-03T01:18:41.822Z,77.95
2019-05-03T01:21:31.752Z,77.81
2019-05-03T01:23:58.996Z,75.61
2019-05-03T01:26:25.694Z,75.36
2019-05-03T01:28:52.506Z,74.56
2019-05-03T01:31:19.469Z,74.32
2019-05-03T01:33:46.247Z,73.72
2019-05-03T01:36:12.970Z,73.62
2019-05-03T01:38:39.923Z,74.19
2019-05-03T01:41:06.657Z,73.72
2019-05-03T01:43:33.390Z,73.72
2019-05-03T01:46:00.229Z,73.99
2019-05-03T01:48:46.574Z,73.67
2019-05-03T01:51:33.007Z,73.90
2019-05-03T01:54:01.369Z,72.75
2019-05-03T01:56:28.488Z,72.46
2019-05-03T01:58:55.453Z,71.53
2019-05-03T02:04:35.731Z,71.93
2019-05-03T02:07:22.397Z,71.55
2019-05-03T02:09:51.888Z,71.02
2019-05-03T02:12:18.580Z,71.52
2019-05-03T02:14:45.322Z,71.00
2019-05-03T02:17:12.557Z,71.88
2019-05-03T02:19:39.224Z,70.08
2019-05-03T02:22:06.081Z,70.07
2019-05-03T02:24:54.415Z,68.00
2019-05-03T02:27:22.000Z,68.91
2019-05-03T02:29:52.309Z,69.82
2019-05-03T02:32:33.210Z,69.28
2019-05-03T02:35:02.544Z,69.05
2019-05-03T02:37:28.871Z,70.01
2019-05-03T02:43:10.254Z,71.58
2019-05-03T02:51:03.219Z,71.01
2019-05-03T02:53:29.969Z,70.63
2019-05-03T02:56:13.006Z,70.27
2019-05-03T02:58:25.589Z,69.29
2019-05-03T03:04:16.003Z,69.18
2019-05-03T03:07:25.971Z,69.76
2019-05-03T03:10:12.439Z,69.61
2019-05-03T03:13:20.356Z,68.74
2019-05-03T03:16:28.240Z,69.90
2019-05-03T03:19:36.005Z,70.23
2019-05-03T03:22:45.661Z,69.70
2019-05-03T03:25:55.896Z,69.02
2019-05-03T03:28:25.293Z,69.51
2019-05-03T03:31:30.816Z,69.58
2019-05-03T03:34:19.034Z,69.94
2019-05-03T03:37:29.389Z,63.96
2019-05-03T03:39:56.281Z,61.82
2019-05-03T03:42:25.157Z,61.36
2019-05-03T03:44:52.144Z,61.67
2019-05-03T03:47:40.492Z,62.37
2019-05-03T03:50:08.225Z,62.84
2019-05-03T03:52:36.812Z,63.10
2019-05-03T03:55:06.445Z,63.09
2019-05-03T03:57:55.778Z,62.63
2019-05-03T04:00:25.532Z,61.90
2019-05-03T04:03:32.939Z,61.14
2019-05-03T04:06:00.026Z,61.14
2019-05-03T04:08:27.148Z,62.09
2019-05-03T04:10:55.893Z,61.90
2019-05-03T04:16:20.993Z,61.72
2019-05-03T04:22:01.431Z,61.93
2019-05-03T04:24:28.856Z,62.52
2019-05-03T04:27:36.733Z,62.54
2019-05-03T04:30:05.899Z,63.08
2019-05-03T04:32:32.608Z,63.72
2019-05-03T04:34:59.522Z,64.38
2019-05-03T04:37:26.808Z,64.49
2019-05-03T04:39:56.211Z,64.59
2019-05-03T04:42:25.387Z,65.22
2019-05-03T04:44:56.224Z,65.50
2019-05-03T04:47:26.049Z,65.70
2019-05-03T04:49:55.280Z,66.50
2019-05-03T04:52:21.405Z,66.79
2019-05-03T04:55:08.020Z,67.75
2019-05-03T04:57:40.662Z,67.81
2019-05-03T05:00:06.028Z,67.81
2019-05-03T05:02:35.415Z,67.60
2019-05-03T05:05:02.304Z,68.55
2019-05-03T05:07:48.661Z,68.10
2019-05-03T05:10:15.676Z,68.79
2019-05-03T05:12:42.351Z,69.17
2019-05-03T05:15:09.343Z,68.26
2019-05-03T05:17:56.735Z,68.16
2019-05-03T05:23:16.692Z,67.95
2019-05-03T05:28:42.028Z,67.11
2019-05-03T05:31:08.910Z,67.56
2019-05-03T05:33:35.757Z,67.05
2019-05-03T05:36:04.729Z,67.00
2019-05-03T05:38:31.946Z,67.49
2019-05-03T05:40:59.038Z,66.98
2019-05-03T05:43:26.257Z,67.65
2019-05-03T05:45:55.208Z,68.02
2019-05-03T05:51:05.716Z,67.93
2019-05-03T05:53:32.374Z,68.03
2019-05-03T05:56:18.960Z,68.23
2019-05-03T05:59:05.423Z,67.10
2019-05-03T06:04:29.849Z,65.57
2019-05-03T06:10:14.705Z,64.58
2019-05-03T06:13:15.176Z,64.47
2019-05-03T06:15:49.635Z,63.41
2019-05-03T06:21:28.261Z,63.40
2019-05-03T06:24:14.885Z,63.04
2019-05-03T06:27:01.433Z,62.55
2019-05-03T06:29:28.462Z,61.66
2019-05-03T06:32:15.353Z,59.88
2019-05-03T06:34:42.674Z,60.92
2019-05-03T06:39:59.073Z,60.82
2019-05-03T06:42:25.810Z,60.44
2019-05-03T06:44:54.123Z,58.90
2019-05-03T06:47:46.032Z,58.40
2019-05-03T06:50:10.577Z,58.56
2019-05-03T06:52:37.672Z,59.45
2019-05-03T06:55:09.301Z,60.06
2019-05-03T07:00:41.895Z,57.47
2019-05-03T07:03:28.917Z,55.49
2019-05-03T07:06:15.521Z,56.16
2019-05-03T07:09:01.791Z,57.20
2019-05-03T07:11:28.846Z,57.15
2019-05-03T07:13:56.031Z,57.29
2019-05-03T07:16:22.823Z,55.87
2019-05-03T07:18:50.010Z,52.28
2019-05-03T07:21:17.300Z,50.44
2019-05-03T07:23:45.077Z,51.23
2019-05-03T07:26:14.910Z,51.72
2019-05-03T07:28:46.860Z,50.90
2019-05-03T07:31:10.544Z,51.63
2019-05-03T07:33:37.279Z,52.24
2019-05-03T07:36:05.352Z,51.68
2019-05-03T07:38:45.809Z,50.93
2019-05-03T07:41:14.771Z,50.86
2019-05-03T07:43:41.363Z,48.72
2019-05-03T07:46:08.643Z,48.85
2019-05-03T07:48:35.784Z,48.66
2019-05-03T07:51:02.513Z,50.02
2019-05-03T07:53:29.312Z,48.49
2019-05-03T07:56:15.919Z,47.87
2019-05-03T07:58:59.508Z,47.00
2019-05-03T08:04:09.443Z,47.31
2019-05-03T08:06:36.175Z,46.33
2019-05-03T08:09:45.364Z,46.45
2019-05-03T08:12:12.446Z,46.63
2019-05-03T08:14:39.496Z,44.40
2019-05-03T08:17:06.586Z,43.87
2019-05-03T08:19:35.514Z,43.34
2019-05-03T08:22:04.602Z,43.04
2019-05-03T08:24:31.485Z,43.71
2019-05-03T08:26:58.198Z,44.86
2019-05-03T08:29:25.022Z,44.69
2019-05-03T08:32:11.571Z,44.58
2019-05-03T08:34:58.216Z,44.48
2019-05-03T08:37:29.238Z,44.20
2019-05-03T08:40:09.054Z,44.60
2019-05-03T08:42:35.936Z,42.10
2019-05-03T08:45:04.553Z,40.69
2019-05-03T08:47:32.035Z,40.29
2019-05-03T08:49:59.127Z,40.99
2019-05-03T08:52:26.166Z,40.02
2019-05-03T08:54:54.979Z,38.42
2019-05-03T08:57:22.245Z,38.91
2019-05-03T08:59:49.755Z,39.12
2019-05-03T09:02:17.848Z,39.98
2019-05-03T09:04:46.426Z,38.17
2019-05-03T09:07:15.406Z,38.13
2019-05-03T09:13:05.551Z,40.44
2019-05-03T09:15:31.830Z,40.25
2019-05-03T09:17:58.922Z,38.89
2019-05-03T09:20:26.694Z,39.46
2019-05-03T09:22:54.964Z,38.49
2019-05-03T09:25:24.770Z,37.67
2019-05-03T09:27:52.232Z,36.30
2019-05-03T09:30:19.259Z,36.78
2019-05-03T09:32:46.060Z,37.54
2019-05-03T09:35:27.187Z,37.15
2019-05-03T09:37:42.216Z,37.20
2019-05-03T09:40:09.411Z,37.74
2019-05-03T09:42:36.581Z,36.38
2019-05-03T09:45:04.941Z,36.65
2019-05-03T09:47:32.846Z,34.26
2019-05-03T09:50:02.111Z,33.88
2019-05-03T09:52:29.371Z,35.73
2019-05-03T09:57:50.495Z,37.55
2019-05-03T10:00:18.045Z,38.34
2019-05-03T10:02:45.091Z,38.62
2019-05-03T10:05:15.584Z,38.65
2019-05-03T10:07:42.726Z,38.77
2019-05-03T10:10:09.598Z,35.35
2019-05-03T10:12:36.334Z,35.56
2019-05-03T10:15:06.355Z,34.38
2019-05-03T10:17:51.651Z,33.20
2019-05-03T10:20:18.681Z,33.68
2019-05-03T10:22:45.911Z,33.33
2019-05-03T10:25:12.890Z,32.27
2019-05-03T10:27:59.318Z,32.66
2019-05-03T10:30:27.778Z,31.83
2019-05-03T10:35:48.174Z,32.78
2019-05-03T10:38:15.229Z,34.02
2019-05-03T10:40:42.053Z,35.46
2019-05-03T10:43:09.586Z,34.36
2019-05-03T10:45:36.361Z,35.49
2019-05-03T10:48:04.818Z,34.84
2019-05-03T10:50:31.994Z,35.16
2019-05-03T10:56:13.366Z,36.04
2019-05-03T10:58:40.353Z,36.65
2019-05-03T11:01:07.480Z,33.56
2019-05-03T11:03:34.991Z,33.32
2019-05-03T11:06:02.155Z,32.90
2019-05-03T11:08:30.160Z,34.08
2019-05-03T11:10:57.992Z,32.36
2019-05-03T11:13:26.418Z,31.96
2019-05-03T11:15:54.903Z,33.03
2019-05-03T11:18:25.173Z,33.99
2019-05-03T11:20:51.770Z,34.89
2019-05-03T11:23:18.659Z,35.41
2019-05-03T11:26:05.205Z,33.76
2019-05-03T11:28:32.502Z,31.84
2019-05-03T11:31:19.244Z,31.88
2019-05-03T11:33:46.366Z,33.30
2019-05-03T11:36:34.774Z,34.72
2019-05-03T11:39:01.733Z,35.41
2019-05-03T11:44:36.345Z,37.42
2019-05-03T11:47:05.786Z,37.46
2019-05-03T11:49:34.722Z,39.02
2019-05-03T11:52:02.284Z,38.84
2019-05-03T11:54:31.594Z,37.16
2019-05-03T11:59:34.495Z,34.58
2019-05-03T12:02:44.772Z,31.39
2019-05-03T12:05:32.762Z,30.50
2019-05-03T12:07:59.870Z,30.95
2019-05-03T12:10:44.798Z,31.23
2019-05-03T12:13:34.916Z,31.63
2019-05-03T12:16:04.905Z,33.91
2019-05-03T12:18:44.913Z,35.23
2019-05-03T12:21:01.219Z,35.02
2019-05-03T12:23:31.947Z,36.23
2019-05-03T12:25:59.318Z,35.11
2019-05-03T12:28:47.049Z,35.86
2019-05-03T12:31:29.743Z,34.88
2019-05-03T12:33:45.755Z,34.64
2019-05-03T12:36:12.718Z,35.31
2019-05-03T12:38:59.467Z,33.40
2019-05-03T12:41:27.067Z,32.42
2019-05-03T12:43:55.138Z,34.04
2019-05-03T12:46:23.285Z,34.35
2019-05-03T12:49:10.217Z,34.20
2019-05-03T12:51:38.186Z,34.98
2019-05-03T12:54:06.010Z,34.60
2019-05-03T12:56:35.741Z,35.22
2019-05-03T13:02:04.852Z,35.32
2019-05-03T13:04:34.973Z,34.63
2019-05-03T13:07:21.753Z,33.80
2019-05-03T13:09:48.737Z,34.31
2019-05-03T13:15:05.088Z,32.94
2019-05-03T13:17:55.363Z,33.73
2019-05-03T13:20:45.446Z,33.67
2019-05-03T13:23:13.088Z,34.33
2019-05-03T13:25:41.196Z,32.68
2019-05-03T13:28:09.353Z,32.77
2019-05-03T13:30:36.375Z,33.39
2019-05-03T13:33:05.655Z,35.37
2019-05-03T13:35:35.104Z,34.24
2019-05-03T13:38:25.049Z,34.46
2019-05-03T13:43:47.240Z,33.99
2019-05-03T13:46:15.656Z,34.25
2019-05-03T13:48:46.670Z,34.46
2019-05-03T13:51:14.605Z,35.04
2019-05-03T13:53:41.464Z,35.44
2019-05-03T13:58:42.024Z,34.12
2019-05-03T14:01:09.445Z,34.18
2019-05-03T14:03:36.683Z,33.95
2019-05-03T14:06:08.338Z,33.65
2019-05-03T14:08:35.006Z,35.29
2019-05-03T14:11:02.349Z,34.70
2019-05-03T14:13:29.535Z,35.16
2019-05-03T14:16:16.631Z,35.55
2019-05-03T14:21:54.516Z,35.33
2019-05-03T14:24:21.502Z,35.46
2019-05-03T14:26:48.815Z,35.53
2019-05-03T14:29:16.022Z,35.79
2019-05-03T14:31:45.410Z,36.79
2019-05-03T14:34:25.745Z,34.79
2019-05-03T14:36:55.465Z,36.19
2019-05-03T14:39:42.674Z,37.14
2019-05-03T14:42:09.766Z,36.39
2019-05-03T14:44:36.983Z,37.37
2019-05-03T14:47:05.752Z,36.73
2019-05-03T14:49:46.008Z,37.61
2019-05-03T14:52:14.615Z,38.14
2019-05-03T15:03:08.712Z,38.61
2019-05-03T15:05:35.532Z,38.54
2019-05-03T15:08:02.611Z,38.32
2019-05-03T15:10:29.985Z,38.58
2019-05-03T15:12:57.003Z,38.06
2019-05-03T15:15:25.099Z,38.82
2019-05-03T15:17:54.923Z,38.61
2019-05-03T15:20:22.125Z,40.15
2019-05-03T15:22:49.652Z,40.10
2019-05-03T15:25:17.162Z,40.92
2019-05-03T15:27:44.820Z,39.96
2019-05-03T15:30:35.275Z,41.22
2019-05-03T15:33:04.991Z,40.76
2019-05-03T15:35:34.918Z,41.22
2019-05-03T15:38:21.326Z,41.44
2019-05-03T15:40:49.274Z,40.28
2019-05-03T15:43:55.962Z,40.88
2019-05-03T15:46:44.735Z,41.26
2019-05-03T15:49:12.489Z,41.27
2019-05-03T15:51:39.778Z,43.01
2019-05-03T15:54:06.880Z,43.44
2019-05-03T15:56:34.216Z,43.84
2019-05-03T15:59:01.720Z,43.33
2019-05-03T16:01:48.683Z,43.83
2019-05-03T16:04:15.787Z,44.73
2019-05-03T16:06:44.818Z,44.49
2019-05-03T16:09:12.661Z,45.28
2019-05-03T16:11:39.958Z,44.80
2019-05-03T16:14:07.075Z,45.43
2019-05-03T16:16:35.365Z,45.66
2019-05-03T16:19:05.395Z,46.44
2019-05-03T16:21:34.121Z,46.35
2019-05-03T16:24:04.883Z,45.71
2019-05-03T16:26:32.648Z,44.92
2019-05-03T16:29:19.422Z,44.17
2019-05-03T16:31:46.054Z,44.50
2019-05-03T16:34:12.804Z,43.94
2019-05-03T16:36:40.002Z,43.79
2019-05-03T16:39:07.346Z,43.01
2019-05-03T16:41:35.417Z,42.86
2019-05-03T16:44:24.360Z,42.71
2019-05-03T16:46:52.098Z,43.11
2019-05-03T16:49:19.173Z,44.11
2019-05-03T16:51:46.333Z,44.64
2019-05-03T16:54:14.596Z,43.74
2019-05-03T16:56:44.319Z,43.76
2019-05-03T16:59:11.566Z,43.79
2019-05-03T17:01:39.246Z,44.04
2019-05-03T17:04:25.937Z,43.91
2019-05-03T17:09:55.375Z,43.94
2019-05-03T17:15:14.480Z,45.45
2019-05-03T17:17:42.476Z,46.32
2019-05-03T17:20:09.695Z,47.84
2019-05-03T17:22:36.809Z,47.64
2019-05-03T17:25:04.700Z,47.85
2019-05-03T17:27:34.293Z,47.12
2019-05-03T17:30:04.513Z,48.12
2019-05-03T17:32:51.168Z,49.08
2019-05-03T17:35:18.471Z,50.45
2019-05-03T17:37:45.568Z,49.98
2019-05-03T17:40:32.457Z,50.38
2019-05-03T17:43:19.292Z,50.32
2019-05-03T17:48:28.753Z,51.54
2019-05-03T17:50:56.322Z,51.91
2019-05-03T17:53:44.997Z,51.67
2019-05-03T17:56:47.137Z,52.68
2019-05-03T17:59:35.099Z,52.12
2019-05-03T18:02:22.984Z,52.30
2019-05-03T18:05:09.949Z,52.20
2019-05-03T18:07:56.683Z,54.60
2019-05-03T18:12:59.236Z,61.36
2019-05-03T18:15:26.032Z,59.71
2019-05-03T18:17:54.742Z,62.65
2019-05-03T18:20:22.282Z,60.73
2019-05-03T18:22:49.386Z,62.22
2019-05-03T18:25:16.546Z,58.47
2019-05-03T18:27:44.585Z,60.32
2019-05-03T18:30:13.258Z,57.89
2019-05-03T18:32:40.507Z,60.41
2019-05-03T18:35:07.616Z,63.25
2019-05-03T18:37:35.106Z,59.79
2019-05-03T18:40:02.251Z,57.31
2019-05-03T18:42:48.923Z,57.43
2019-05-03T18:47:55.173Z,58.79
2019-05-03T18:50:22.305Z,58.64
2019-05-03T18:52:49.443Z,59.65
2019-05-03T18:55:16.633Z,58.50
2019-05-03T18:57:46.594Z,60.94
2019-05-03T19:00:15.357Z,63.07
2019-05-03T19:02:44.510Z,61.25
2019-05-03T19:05:15.188Z,57.58
2019-05-03T19:16:46.183Z,59.43
2019-05-03T19:22:25.035Z,59.38
2019-05-03T19:24:52.389Z,57.59
2019-05-03T19:27:39.649Z,58.06
2019-05-03T19:30:26.283Z,58.40
2019-05-03T19:33:13.355Z,60.44
2019-05-03T19:35:40.483Z,58.31
2019-05-03T19:38:08.894Z,57.57
2019-05-03T19:40:56.677Z,57.42
2019-05-03T19:43:24.382Z,57.69
2019-05-03T19:45:53.701Z,56.67
2019-05-03T19:48:21.135Z,57.07
2019-05-03T19:50:48.285Z,57.26
2019-05-03T19:55:58.998Z,55.45
2019-05-03T19:58:39.296Z,55.86
2019-05-03T20:01:26.338Z,57.05
2019-05-03T20:09:39.115Z,56.52
2019-05-03T20:12:06.589Z,56.18
2019-05-03T20:14:35.748Z,56.99
2019-05-03T20:17:04.730Z,55.72
2019-05-03T20:19:32.237Z,56.78
2019-05-03T20:21:59.354Z,56.27
2019-05-03T20:24:26.455Z,56.44
2019-05-03T20:26:53.652Z,55.42
2019-05-03T20:29:20.736Z,55.74
2019-05-03T20:31:47.982Z,56.73
2019-05-03T20:34:15.815Z,56.33
2019-05-03T20:36:45.339Z,55.82
2019-05-03T20:39:14.844Z,55.97
2019-05-03T20:41:42.283Z,56.83
2019-05-03T20:44:28.982Z,55.98
2019-05-03T20:47:10.141Z,56.04
2019-05-03T20:49:37.296Z,56.66
2019-05-03T20:52:04.383Z,55.86
2019-05-03T20:54:31.533Z,55.97
2019-05-03T20:56:58.737Z,57.22
2019-05-03T20:59:45.272Z,57.36
2019-05-03T21:02:07.339Z,57.07
2019-05-03T21:04:35.334Z,62.05
2019-05-03T21:07:04.678Z,60.06
2019-05-03T21:09:34.169Z,63.36
2019-05-03T21:12:01.536Z,63.03
2019-05-03T21:14:28.672Z,60.15
2019-05-03T21:17:15.400Z,60.33
2019-05-03T21:20:02.107Z,60.05
2019-05-03T21:22:48.759Z,59.02
2019-05-03T21:25:46.911Z,59.37
2019-05-03T21:28:04.904Z,59.55
2019-05-03T21:30:32.916Z,60.33
2019-05-03T21:33:01.432Z,62.74
2019-05-03T21:35:40.820Z,61.35
2019-05-03T21:37:57.580Z,63.20
2019-05-03T21:40:24.667Z,59.08
2019-05-03T21:42:52.025Z,60.23
2019-05-03T21:48:31.766Z,68.20
2019-05-03T21:50:58.408Z,64.21
2019-05-03T21:53:25.819Z,65.23
2019-05-03T21:55:52.952Z,64.08
2019-05-03T21:58:20.061Z,62.02
2019-05-03T22:01:05.130Z,58.45
2019-05-03T22:03:32.301Z,59.51
2019-05-03T22:05:59.418Z,58.74
2019-05-03T22:08:26.522Z,58.36
2019-05-03T22:10:55.469Z,60.06
2019-05-03T22:13:24.566Z,60.03
2019-05-03T22:18:31.389Z,62.49
2019-05-03T22:24:07.452Z,65.52
2019-05-03T22:26:54.109Z,66.46
2019-05-03T22:29:21.238Z,67.11
2019-05-03T22:31:48.653Z,69.28
2019-05-03T22:34:35.266Z,68.86
2019-05-03T22:37:02.351Z,70.64
2019-05-03T22:39:29.435Z,71.45
2019-05-03T22:41:56.641Z,72.19
2019-05-03T22:44:25.332Z,69.82
2019-05-03T22:46:52.718Z,70.76
2019-05-03T22:49:19.881Z,72.69
2019-05-03T22:51:47.014Z,71.14
2019-05-03T22:54:15.363Z,74.54
2019-05-03T22:56:44.737Z,80.76
2019-05-03T22:59:14.516Z,87.40
2019-05-03T23:01:41.756Z,90.26
2019-05-03T23:04:08.883Z,88.94
2019-05-03T23:06:35.995Z,90.27
2019-05-03T23:09:44.670Z,90.34
2019-05-03T23:12:11.580Z,92.67
2019-05-03T23:14:38.580Z,93.03
2019-05-03T23:17:05.556Z,92.97
2019-05-03T23:25:02.112Z,91.14
2019-05-03T23:27:29.244Z,85.13
2019-05-03T23:29:56.350Z,81.47
2019-05-03T23:32:24.480Z,81.77
2019-05-03T23:34:54.426Z,79.72
2019-05-03T23:37:22.028Z,78.19
2019-05-03T23:39:49.160Z,80.39
2019-05-03T23:42:16.256Z,84.00
2019-05-03T23:44:45.681Z,83.64
2019-05-03T23:47:34.355Z,86.07
2019-05-03T23:50:01.253Z,83.07
2019-05-03T23:52:48.060Z,82.66
2019-05-03T23:57:55.436Z,79.87
